Time,TemperatureF,DewpointF,PressureIn,WindDirection,WindDirectionDegrees,WindSpeedMPH,WindSpeedGustMPH,Humidity,HourlyPrecipIn,Conditions,Clouds,dailyrainin,SoftwareType,DateUTC
2013-06-06 00:15:00,62.4,48.7,29.87,SE,137,0.0,0.0,61,0.00,,,0.00,meteobridge,2013-06-06 07:15:00,
2013-06-06 00:30:00,62.8,49.6,29.87,SE,137,0.0,0.0,62,0.00,,,0.00,meteobridge,2013-06-06 07:30:00,
2013-06-06 00:45:00,62.1,50.2,29.87,SE,137,0.0,0.0,65,0.00,,,0.00,meteobridge,2013-06-06 07:45:00,
2013-06-06 01:00:00,61.2,49.3,29.87,SE,137,0.0,0.0,65,0.00,,,0.00,meteobridge,2013-06-06 08:00:00,
2013-06-06 01:16:00,60.6,49.3,29.86,SE,137,0.0,0.0,66,0.00,,,0.00,meteobridge,2013-06-06 08:16:00,
2013-06-06 01:31:00,60.4,48.6,29.86,SE,137,0.0,0.0,65,0.00,,,0.00,meteobridge,2013-06-06 08:31:00,
2013-06-06 01:46:00,60.3,48.9,29.86,SE,137,0.0,0.0,66,0.00,,,0.00,meteobridge,2013-06-06 08:46:00,
2013-06-06 02:01:00,60.6,49.3,29.86,SE,137,0.0,0.0,66,0.00,,,0.00,meteobridge,2013-06-06 09:01:00,
2013-06-06 02:16:00,61.3,49.1,29.86,SE,137,0.0,0.0,64,0.00,,,0.00,meteobridge,2013-06-06 09:16:00,
2013-06-06 02:31:00,61.2,48.4,29.86,SE,137,0.0,0.0,63,0.00,,,0.00,meteobridge,2013-06-06 09:31:00,
2013-06-06 02:47:00,61.2,48.4,29.86,SE,137,0.0,0.0,63,0.00,,,0.00,meteobridge,2013-06-06 09:47:00,
2013-06-06 03:02:00,60.8,48.6,29.86,SE,137,0.0,0.0,64,0.00,,,0.00,meteobridge,2013-06-06 10:02:00,
2013-06-06 03:17:00,61.2,50.5,29.87,SE,137,0.0,0.0,68,0.00,,,0.00,meteobridge,2013-06-06 10:17:00,
2013-06-06 03:32:00,60.3,51.3,29.87,SE,136,0.0,0.0,72,0.00,,,0.00,meteobridge,2013-06-06 10:32:00,
2013-06-06 03:47:00,60.1,51.4,29.87,SE,136,0.0,0.0,73,0.00,,,0.00,meteobridge,2013-06-06 10:47:00,
2013-06-06 04:02:00,59.5,51.3,29.87,SE,136,0.0,0.0,74,0.00,,,0.00,meteobridge,2013-06-06 11:02:00,
2013-06-06 04:17:00,59.5,51.6,29.87,SE,136,0.0,0.0,75,0.00,,,0.00,meteobridge,2013-06-06 11:17:00,
2013-06-06 04:32:00,59.4,51.4,29.88,ENE,68,0.0,0.9,75,0.00,,,0.00,meteobridge,2013-06-06 11:32:00,
2013-06-06 04:47:00,59.0,51.8,29.88,ENE,70,0.0,0.0,77,0.00,,,0.00,meteobridge,2013-06-06 11:47:00,
2013-06-06 05:02:00,58.3,51.1,29.88,ENE,70,0.0,0.0,77,0.00,,,0.00,meteobridge,2013-06-06 12:02:00,
2013-06-06 05:17:00,58.1,51.6,29.88,ENE,70,0.0,0.0,79,0.00,,,0.00,meteobridge,2013-06-06 12:17:00,
2013-06-06 05:32:00,57.7,51.6,29.89,ENE,70,0.0,0.0,80,0.00,,,0.00,meteobridge,2013-06-06 12:32:00,
2013-06-06 05:48:00,57.6,51.8,29.89,ENE,70,0.0,0.0,81,0.00,,,0.00,meteobridge,2013-06-06 12:48:00,
2013-06-06 06:03:00,57.9,52.2,29.89,ENE,70,0.0,0.0,81,0.00,,,0.00,meteobridge,2013-06-06 13:03:00,
2013-06-06 06:18:00,58.5,52.7,29.89,ENE,70,0.0,0.0,81,0.00,,,0.00,meteobridge,2013-06-06 13:18:00,
2013-06-06 06:33:00,59.4,52.9,29.89,ENE,70,0.0,0.0,79,0.00,,,0.00,meteobridge,2013-06-06 13:33:00,
2013-06-06 06:48:00,60.3,53.1,29.90,ENE,70,0.0,0.0,77,0.00,,,0.00,meteobridge,2013-06-06 13:48:00,
2013-06-06 07:03:00,61.5,53.6,29.90,ENE,70,0.0,0.9,75,0.00,,,0.00,meteobridge,2013-06-06 14:03:00,
2013-06-06 07:19:00,64.9,54.5,29.90,ENE,65,0.0,0.0,69,0.00,,,0.00,meteobridge,2013-06-06 14:19:00,
2013-06-06 07:34:00,66.6,53.6,29.90,North,9,0.0,0.9,63,0.00,,,0.00,meteobridge,2013-06-06 14:34:00,
2013-06-06 07:49:00,67.6,53.2,29.90,ENE,64,0.0,0.0,60,0.00,,,0.00,meteobridge,2013-06-06 14:49:00,
2013-06-06 08:04:00,67.3,52.9,29.90,ENE,63,0.0,2.0,60,0.00,,,0.00,meteobridge,2013-06-06 15:04:00,
2013-06-06 08:19:00,68.4,53.4,29.90,WSW,243,0.0,0.9,59,0.00,,,0.00,meteobridge,2013-06-06 15:19:00,
2013-06-06 08:34:00,69.6,51.3,29.91,SSE,154,0.9,2.0,52,0.00,,,0.00,meteobridge,2013-06-06 15:34:00,
2013-06-06 08:49:00,71.4,50.7,29.90,South,191,0.0,0.9,48,0.00,,,0.00,meteobridge,2013-06-06 15:49:00,
2013-06-06 09:04:00,73.2,51.8,29.91,South,191,0.0,0.9,47,0.00,,,0.00,meteobridge,2013-06-06 16:04:00,
2013-06-06 09:19:00,73.8,52.3,29.91,SW,225,0.0,0.0,47,0.00,,,0.00,meteobridge,2013-06-06 16:19:00,
2013-06-06 09:34:00,74.1,54.3,29.91,SSE,161,0.0,0.9,50,0.00,,,0.00,meteobridge,2013-06-06 16:34:00,
2013-06-06 09:49:00,74.8,54.3,29.91,SE,144,0.9,0.9,49,0.00,,,0.00,meteobridge,2013-06-06 16:49:00,
2013-06-06 10:05:00,75.6,54.0,29.90,SW,223,0.0,0.0,47,0.00,,,0.00,meteobridge,2013-06-06 17:05:00,
2013-06-06 10:20:00,77.2,54.9,29.90,North,359,0.0,0.9,46,0.00,,,0.00,meteobridge,2013-06-06 17:20:00,
2013-06-06 10:35:00,77.5,54.5,29.90,WSW,243,0.0,0.9,45,0.00,,,0.00,meteobridge,2013-06-06 17:35:00,
2013-06-06 10:50:00,78.4,53.4,29.90,SSW,200,0.9,0.9,42,0.00,,,0.00,meteobridge,2013-06-06 17:50:00,
2013-06-06 11:05:00,79.2,54.1,29.90,SSE,159,0.9,2.0,42,0.00,,,0.00,meteobridge,2013-06-06 18:05:00,
2013-06-06 11:20:00,79.9,53.4,29.89,SW,214,0.0,2.0,40,0.00,,,0.00,meteobridge,2013-06-06 18:20:00,
2013-06-06 11:35:00,80.4,55.2,29.89,SSW,195,0.0,0.0,42,0.00,,,0.00,meteobridge,2013-06-06 18:35:00,
2013-06-06 11:50:00,81.3,52.5,29.89,WSW,257,0.9,2.9,37,0.00,,,0.00,meteobridge,2013-06-06 18:50:00,
2013-06-06 12:05:00,81.3,52.5,29.89,SSE,156,2.0,2.9,37,0.00,,,0.00,meteobridge,2013-06-06 19:05:00,
2013-06-06 12:20:00,81.7,53.6,29.89,SW,219,0.0,2.9,38,0.00,,,0.00,meteobridge,2013-06-06 19:20:00,
2013-06-06 12:35:00,82.2,54.9,29.88,SW,214,0.0,0.0,39,0.00,,,0.00,meteobridge,2013-06-06 19:35:00,
2013-06-06 12:50:00,82.0,54.7,29.88,SW,229,0.0,0.9,39,0.00,,,0.00,meteobridge,2013-06-06 19:50:00,
2013-06-06 13:05:00,81.9,52.3,29.88,SSW,209,0.0,2.0,36,0.00,,,0.00,meteobridge,2013-06-06 20:05:00,
2013-06-06 13:20:00,81.3,52.5,29.87,SE,142,0.9,2.0,37,0.00,,,0.00,meteobridge,2013-06-06 20:20:00,
2013-06-06 13:35:00,81.7,52.9,29.86,SSE,155,0.9,2.0,37,0.00,,,0.00,meteobridge,2013-06-06 20:35:00,
2013-06-06 13:50:00,81.7,52.9,29.86,SE,136,0.9,2.0,37,0.00,,,0.00,meteobridge,2013-06-06 20:50:00,
2013-06-06 14:05:00,81.7,53.6,29.85,SW,221,0.0,2.0,38,0.00,,,0.00,meteobridge,2013-06-06 21:05:00,
2013-06-06 14:20:00,82.2,52.5,29.85,SW,231,0.0,2.0,36,0.00,,,0.00,meteobridge,2013-06-06 21:20:00,
2013-06-06 14:36:00,82.6,52.2,29.85,SSW,203,0.0,2.0,35,0.00,,,0.00,meteobridge,2013-06-06 21:36:00,
2013-06-06 14:51:00,82.8,51.4,29.84,SSW,198,0.0,0.9,34,0.00,,,0.00,meteobridge,2013-06-06 21:51:00,
2013-06-06 15:06:00,82.2,53.4,29.84,SW,217,0.0,0.9,37,0.00,,,0.00,meteobridge,2013-06-06 22:06:00,
2013-06-06 15:36:00,82.0,49.3,29.83,NW,304,0.0,0.0,32,0.00,,,0.00,meteobridge,2013-06-06 22:36:00,
2013-06-06 15:51:00,82.0,51.6,29.83,SSE,150,0.9,0.9,35,0.00,,,0.00,meteobridge,2013-06-06 22:51:00,
2013-06-06 16:06:00,82.6,52.9,29.82,SSE,158,0.0,0.9,36,0.00,,,0.00,meteobridge,2013-06-06 23:06:00,
2013-06-06 16:21:00,82.0,50.2,29.82,WNW,288,0.9,0.9,33,0.00,,,0.00,meteobridge,2013-06-06 23:21:00,
2013-06-06 16:37:00,81.3,53.2,29.82,SSE,149,0.0,0.0,38,0.00,,,0.00,meteobridge,2013-06-06 23:37:00,
2013-06-06 16:52:00,81.1,51.6,29.82,South,174,0.0,0.0,36,0.00,,,0.00,meteobridge,2013-06-06 23:52:00,
2013-06-06 17:07:00,82.0,53.2,29.81,SSW,195,0.0,0.0,37,0.00,,,0.00,meteobridge,2013-06-07 00:07:00,
2013-06-06 17:22:00,82.0,50.9,29.81,SSW,208,0.9,2.9,34,0.00,,,0.00,meteobridge,2013-06-07 00:22:00,
2013-06-06 17:37:00,81.9,53.1,29.80,SW,224,0.0,2.0,37,0.00,,,0.00,meteobridge,2013-06-07 00:37:00,
2013-06-06 17:53:00,81.5,51.3,29.80,SSE,157,0.0,0.9,35,0.00,,,0.00,meteobridge,2013-06-07 00:53:00,
2013-06-06 18:08:00,81.1,49.3,29.80,SE,146,0.0,0.9,33,0.00,,,0.00,meteobridge,2013-06-07 01:08:00,
2013-06-06 18:23:00,81.1,49.3,29.80,SSW,205,0.0,0.9,33,0.00,,,0.00,meteobridge,2013-06-07 01:23:00,
2013-06-06 18:38:00,81.1,49.3,29.80,SW,218,0.0,0.0,33,0.00,,,0.00,meteobridge,2013-06-07 01:38:00,
2013-06-06 18:53:00,81.1,50.9,29.80,West,277,0.0,0.0,35,0.00,,,0.00,meteobridge,2013-06-07 01:53:00,
2013-06-06 19:08:00,81.1,49.3,29.79,SW,223,0.0,0.9,33,0.00,,,0.00,meteobridge,2013-06-07 02:08:00,
2013-06-06 19:24:00,81.5,50.4,29.79,SE,131,0.0,0.0,34,0.00,,,0.00,meteobridge,2013-06-07 02:24:00,
2013-06-06 19:39:00,79.9,50.5,29.79,SE,143,0.0,0.9,36,0.00,,,0.00,meteobridge,2013-06-07 02:39:00,
2013-06-06 19:54:00,77.4,50.5,29.79,SE,143,0.0,0.0,39,0.00,,,0.00,meteobridge,2013-06-07 02:54:00,
2013-06-06 20:09:00,75.2,51.1,29.79,SE,143,0.0,0.0,43,0.00,,,0.00,meteobridge,2013-06-07 03:09:00,
2013-06-06 20:24:00,73.9,52.5,29.79,SE,143,0.0,0.0,47,0.00,,,0.00,meteobridge,2013-06-07 03:24:00,
2013-06-06 20:39:00,72.7,53.4,29.79,SE,141,0.0,0.0,51,0.00,,,0.00,meteobridge,2013-06-07 03:39:00,
2013-06-06 20:55:00,71.1,53.6,29.79,SE,141,0.0,0.0,54,0.00,,,0.00,meteobridge,2013-06-07 03:55:00,
2013-06-06 21:10:00,69.8,53.4,29.80,SE,141,0.0,0.0,56,0.00,,,0.00,meteobridge,2013-06-07 04:10:00,
2013-06-06 21:25:00,68.7,53.4,29.80,SE,141,0.0,0.0,58,0.00,,,0.00,meteobridge,2013-06-07 04:25:00,
2013-06-06 21:40:00,68.0,53.6,29.80,SE,141,0.0,0.0,60,0.00,,,0.00,meteobridge,2013-06-07 04:40:00,
2013-06-06 21:56:00,67.3,53.4,29.80,SE,141,0.0,0.0,61,0.00,,,0.00,meteobridge,2013-06-07 04:56:00,
2013-06-06 22:11:00,66.6,53.1,29.80,SE,141,0.0,0.0,62,0.00,,,0.00,meteobridge,2013-06-07 05:11:00,
2013-06-06 22:26:00,65.7,53.2,29.80,SE,141,0.0,0.0,64,0.00,,,0.00,meteobridge,2013-06-07 05:26:00,
2013-06-06 22:41:00,65.1,52.2,29.80,SE,141,0.0,0.0,63,0.00,,,0.00,meteobridge,2013-06-07 05:41:00,
2013-06-06 22:56:00,64.9,52.5,29.79,SE,141,0.0,0.0,64,0.00,,,0.00,meteobridge,2013-06-07 05:56:00,
2013-06-06 23:11:00,63.9,52.3,29.79,SE,141,0.0,0.0,66,0.00,,,0.00,meteobridge,2013-06-07 06:11:00,
2013-06-06 23:26:00,63.3,52.2,29.79,SE,141,0.0,0.0,67,0.00,,,0.00,meteobridge,2013-06-07 06:26:00,
2013-06-06 23:41:00,62.8,52.0,29.79,SE,141,0.0,0.0,68,0.00,,,0.00,meteobridge,2013-06-07 06:41:00,
2013-06-06 23:57:00,63.0,51.8,29.79,SE,141,0.0,0.0,67,0.00,,,0.00,meteobridge,2013-06-07 06:57:00,